Portada
METAR-TAF:

METAR-TAF

Aeroports :

Jackson, Tennessee, Estats Units d'Amèrica

latitud: 35-35-35N, longitud: 088-55-00W, altitud: 132 m

Observació

L'informe es va fer fa 48 minuts, a les 06:53 UTC
Vent calma
Temperatura 16°C
Humitat 88%
Pressió 1020 hPa
Visibilitat: 16.1 km
Cel clar

METAR: KMKL 020653Z AUTO 00000KT 10SM CLR 16/14 A3012 RMK AO2 SLP195 T01560144

Hora: 02:41 (07:41 UTC)

Pronòstic

L'informe es va fer fa 2 hores i 21 minuts, a les 05:20 UTC
Pronòstic vàlid del 02 a les 06 UTC al 03 a les 06 UTC
Vent kt del Nord
Visibilitat: 10 km
Escasses núvols a una alçada de 25000 ft
A partir de les 02 a les 1700 UTC
Vent 5 kt del Sud-Oest
Visibilitat: 10 km
Escasses núvols a una alçada de 7000 ft
Núvols disperses a una alçada de 25000 ft
A partir de les 03 a les 0000 UTC
Vent kt del Nord
Visibilitat: 10 km
Cel clar

TAF: KMKL 020520Z 0206/0306 00000KT P6SM FEW250 FM021700 22005KT P6SM FEW070 SCT250 FM030000 00000KT P6SM SKC

Observacions i pronòstics meteorològics de més de 4000 aeroports (METAR i TAF).

Les estacions disponibles són els punts grocs i vermells al mapa.

Posi el ratolí al punt desitjat per veure el nom de l'estació.

Feu clic per veure les observacions i els pronòstics meteorològics.

Per canviar el mapa: feu clic els botons verds amb una creu de color negre per apropar; al botó verd amb un guió per allunyar la imatge; o en les fletxes verdes per a mapes adjacents.


METAR-TAF: